createdAt,value
2022-11-22T00:05:21.848Z,1.70
2022-11-22T00:20:23.743Z,2.40
2022-11-22T00:35:25.625Z,2.90
2022-11-22T00:50:27.476Z,2.00
2022-11-22T01:05:29.370Z,1.60
2022-11-22T01:20:31.698Z,2.10
2022-11-22T01:35:33.594Z,1.70
2022-11-22T01:50:38.065Z,2.30
2022-11-22T02:05:40.190Z,1.20
2022-11-22T02:20:42.324Z,1.10
2022-11-22T02:35:45.170Z,1.10
2022-11-22T02:50:47.456Z,2.50
2022-11-22T03:05:49.314Z,0.90
2022-11-22T03:20:51.251Z,0.90
2022-11-22T03:35:59.586Z,0.90
2022-11-22T03:51:07.601Z,0.90
2022-11-22T04:06:09.445Z,2.20
2022-11-22T04:21:29.726Z,1.20
2022-11-22T04:36:31.538Z,0.60
2022-11-22T04:51:52.758Z,2.20
2022-11-22T05:06:56.797Z,0.80
2022-11-22T05:21:58.664Z,1.70
2022-11-22T05:37:00.591Z,1.00
2022-11-22T05:52:03.197Z,1.10
2022-11-22T06:07:09.753Z,1.10
2022-11-22T06:22:12.012Z,2.20
2022-11-22T06:37:17.020Z,1.20
2022-11-22T06:52:18.894Z,2.30
2022-11-22T07:07:20.804Z,1.20
2022-11-22T07:22:22.785Z,1.60
2022-11-22T07:37:24.713Z,1.50
2022-11-22T07:52:26.529Z,1.60
2022-11-22T08:07:28.447Z,1.70
2022-11-22T08:22:30.359Z,3.10
2022-11-22T08:37:32.368Z,2.30
2022-11-22T08:52:34.820Z,1.90
2022-11-22T09:23:01.908Z,2.00
2022-11-22T09:38:03.790Z,2.20
2022-11-22T09:53:17.189Z,2.30
2022-11-22T10:08:31.298Z,2.30
2022-11-22T10:23:34.022Z,2.40
2022-11-22T10:38:47.481Z,2.50
2022-11-22T10:54:03.705Z,2.60
2022-11-22T11:24:41.514Z,3.20
2022-11-22T11:39:46.791Z,3.30
2022-11-22T11:54:52.910Z,3.40
2022-11-22T12:09:56.145Z,3.40
2022-11-22T12:25:31.067Z,4.30
2022-11-22T12:40:31.783Z,3.60
2022-11-22T12:56:11.661Z,4.20
2022-11-22T13:11:35.685Z,3.70
2022-11-22T13:27:10.641Z,3.80
2022-11-22T13:42:18.326Z,3.90
2022-11-22T13:57:49.705Z,4.00
2022-11-22T14:13:28.765Z,4.10
2022-11-22T14:28:49.181Z,4.20
2022-11-22T14:43:55.009Z,4.30
2022-11-22T14:59:31.091Z,4.10
2022-11-22T15:14:51.261Z,4.30
2022-11-22T16:01:18.325Z,4.20
2022-11-22T16:16:31.606Z,4.20
2022-11-22T16:31:34.868Z,4.30
2022-11-22T16:46:36.774Z,4.40
2022-11-22T17:01:42.829Z,4.40
2022-11-22T17:16:48.538Z,4.50
2022-11-22T17:31:50.464Z,4.50
2022-11-22T17:46:52.349Z,4.50
2022-11-22T18:01:54.256Z,4.50
2022-11-22T18:16:56.401Z,4.50
2022-11-22T18:31:58.794Z,4.50
2022-11-22T18:47:00.723Z,4.50
2022-11-22T19:02:02.610Z,4.40
2022-11-22T19:17:05.085Z,4.40
2022-11-22T19:32:07.058Z,4.40
2022-11-22T19:47:09.224Z,4.30
2022-11-22T20:02:12.827Z,4.20
2022-11-22T20:17:14.741Z,4.30
2022-11-22T20:32:16.696Z,4.10
2022-11-22T20:47:18.602Z,3.90
2022-11-22T21:02:20.491Z,4.00
2022-11-22T21:17:39.758Z,3.60
2022-11-22T21:32:44.783Z,3.70
2022-11-22T21:47:48.413Z,4.00
2022-11-22T22:02:50.266Z,3.80
2022-11-22T22:17:55.108Z,4.30
2022-11-22T22:32:57.996Z,3.60
2022-11-22T22:47:59.885Z,3.80
2022-11-22T23:03:01.808Z,3.90
2022-11-22T23:18:03.732Z,3.30
2022-11-22T23:33:05.620Z,3.20
2022-11-22T23:48:07.485Z,3.40
